Aviation Digital Data Service (ADDS)

Output produced by METARs form (1308 UTC 17 August 2019)
found at http://aviationweather.gov/metar/data/
 
KCLT 171252Z 10008KT 6SM HZ FEW008 BKN011 26/23 A3001 RMK AO2 SLP153 T02560228
KCLT 171237Z 07006KT 6SM BR SCT008 BKN013 25/23 A3002 RMK AO2 T02500228
KCLT 171228Z 07007KT 6SM HZ SCT008 26/23 A3002 RMK AO2 T02560228
KCLT 171145Z 1712/1818 01003KT 6SM BR FEW004 FEW250 
     TEMPO 1713/1714 BKN005 
     FM171400 06005KT P6SM SCT040 
     FM171800 08005KT P6SM VCSH SCT050 
     PROB30 1721/1724 TSRA BKN040CB 
     FM180100 11003KT P6SM SCT050 BKN200 
     FM180500 VRB02KT P6SM FEW150